createdAt,value
2017-08-02T00:00:13.729Z,22.15
2017-08-02T00:01:13.419Z,22.17
2017-08-02T00:02:13.714Z,22.15
2017-08-02T00:03:13.747Z,22.2
2017-08-02T00:04:13.716Z,22.2
2017-08-02T00:05:13.742Z,22.2
2017-08-02T00:06:13.720Z,22.22
2017-08-02T00:07:13.708Z,22.2
2017-08-02T00:08:13.415Z,22.17
2017-08-02T00:09:13.726Z,22.18
2017-08-02T00:10:13.736Z,22.17
2017-08-02T00:11:13.408Z,22.12
2017-08-02T00:12:13.733Z,22.09
2017-08-02T00:13:13.732Z,22.12
2017-08-02T00:14:13.427Z,22.12
2017-08-02T00:15:13.729Z,22.02
2017-08-02T00:16:13.702Z,21.94
2017-08-02T00:17:13.733Z,22.09
2017-08-02T00:18:13.721Z,22
2017-08-02T00:19:13.719Z,22.03
2017-08-02T00:20:13.715Z,22.05
2017-08-02T00:21:13.732Z,21.94
2017-08-02T00:22:13.696Z,22.07
2017-08-02T00:23:13.726Z,22.02
2017-08-02T00:24:13.707Z,21.91
2017-08-02T00:25:13.726Z,21.86
2017-08-02T00:26:13.695Z,21.88
2017-08-02T00:27:13.741Z,21.91
2017-08-02T00:28:13.699Z,21.84
2017-08-02T00:29:13.722Z,21.91
2017-08-02T00:30:13.698Z,21.88
2017-08-02T00:31:13.703Z,21.86
2017-08-02T00:32:13.698Z,21.79
2017-08-02T00:33:13.718Z,21.77
2017-08-02T00:34:13.697Z,21.75
2017-08-02T00:35:13.411Z,21.69
2017-08-02T00:36:13.387Z,21.69
2017-08-02T00:37:13.710Z,21.65
2017-08-02T00:38:13.692Z,21.65
2017-08-02T00:39:13.701Z,21.64
2017-08-02T00:40:13.693Z,21.54
2017-08-02T00:41:13.693Z,21.56
2017-08-02T00:42:13.701Z,21.43
2017-08-02T00:43:13.948Z,21.52
2017-08-02T00:44:13.680Z,21.38
2017-08-02T00:45:13.709Z,21.37
2017-08-02T00:46:13.683Z,21.35
2017-08-02T00:47:13.683Z,21.37
2017-08-02T00:48:13.669Z,21.31
2017-08-02T00:49:13.690Z,21.4
2017-08-02T00:50:13.363Z,21.29
2017-08-02T00:51:13.692Z,21.35
2017-08-02T00:52:13.682Z,21.28
2017-08-02T00:53:13.380Z,21.32
2017-08-02T00:54:13.663Z,21.27
2017-08-02T00:55:13.676Z,21.21
2017-08-02T00:56:13.674Z,21.34
2017-08-02T00:57:13.694Z,21.21
2017-08-02T00:58:13.684Z,21.21
2017-08-02T00:59:13.666Z,21.24
2017-08-02T01:00:13.666Z,21.17
2017-08-02T01:01:13.668Z,21.32
2017-08-02T01:02:13.673Z,21.16
2017-08-02T01:03:13.665Z,21.22
2017-08-02T01:04:13.352Z,21.19
2017-08-02T01:05:13.669Z,21.16
2017-08-02T01:06:13.669Z,21.21
2017-08-02T01:07:13.667Z,21.25
2017-08-02T01:08:13.658Z,21.19
2017-08-02T01:09:13.908Z,21.17
2017-08-02T01:10:13.662Z,21.21
2017-08-02T01:11:13.656Z,21.19
2017-08-02T01:12:13.650Z,21.19
2017-08-02T01:13:13.665Z,21.25
2017-08-02T01:14:13.912Z,21.25
2017-08-02T01:15:13.637Z,21.24
2017-08-02T01:16:13.635Z,21.13
2017-08-02T01:17:13.653Z,21.17
2017-08-02T01:18:13.657Z,21.25
2017-08-02T01:19:13.641Z,21.21
2017-08-02T01:20:13.653Z,21.19
2017-08-02T01:21:13.639Z,21.16
2017-08-02T01:22:13.649Z,21.12
2017-08-02T01:23:13.632Z,21.16
2017-08-02T01:24:13.645Z,21.17
2017-08-02T01:25:13.627Z,21.14
2017-08-02T01:26:13.637Z,21.24
2017-08-02T01:27:13.642Z,21.16
2017-08-02T01:28:13.622Z,21.17
2017-08-02T01:29:13.626Z,21.22
2017-08-02T01:30:13.632Z,21.16
2017-08-02T01:31:13.613Z,21.09
2017-08-02T01:32:13.629Z,21.13
2017-08-02T01:33:13.624Z,21.14
2017-08-02T01:34:13.629Z,21.13
2017-08-02T01:35:13.628Z,21.07
2017-08-02T01:36:13.625Z,21.22
2017-08-02T01:37:13.609Z,21.16
2017-08-02T01:38:13.616Z,21.16
2017-08-02T01:39:13.616Z,21.12
2017-08-02T01:40:13.610Z,21.14
2017-08-02T01:41:13.609Z,21.17
2017-08-02T01:42:13.616Z,21.1
2017-08-02T01:43:13.302Z,21.13
2017-08-02T01:44:13.607Z,21.1
2017-08-02T01:45:13.557Z,21.1
2017-08-02T01:46:13.610Z,21.17
2017-08-02T01:47:13.607Z,21.1
2017-08-02T01:48:13.607Z,21.07
2017-08-02T01:49:13.602Z,21.06
2017-08-02T01:50:13.592Z,21.12
2017-08-02T01:51:13.599Z,21.1
2017-08-02T01:52:13.582Z,21.09
2017-08-02T01:53:13.603Z,21.06
2017-08-02T01:54:13.591Z,21.07
2017-08-02T01:55:13.595Z,21.04
2017-08-02T01:56:13.600Z,21.03
2017-08-02T01:57:12.965Z,21.01
2017-08-02T01:58:13.593Z,20.97
2017-08-02T01:59:13.597Z,20.99
2017-08-02T02:00:13.276Z,20.99
2017-08-02T02:01:13.576Z,21.01
2017-08-02T02:02:13.268Z,20.97
2017-08-02T02:03:13.605Z,20.95
2017-08-02T02:04:13.587Z,20.92
2017-08-02T02:05:13.276Z,20.89
2017-08-02T02:06:13.559Z,20.91
2017-08-02T02:07:13.579Z,20.8
2017-08-02T02:08:13.582Z,20.82
2017-08-02T02:09:13.563Z,20.77
2017-08-02T02:10:13.584Z,20.7
2017-08-02T02:11:13.570Z,20.67
2017-08-02T02:12:13.578Z,20.66
2017-08-02T02:13:13.562Z,20.66
2017-08-02T02:14:13.576Z,20.74
2017-08-02T02:15:13.559Z,20.64
2017-08-02T02:16:13.567Z,20.59
2017-08-02T02:17:13.558Z,20.66
2017-08-02T02:18:13.560Z,20.67
2017-08-02T02:19:13.568Z,20.62
2017-08-02T02:20:13.245Z,20.61
2017-08-02T02:21:13.550Z,20.61
2017-08-02T02:22:13.566Z,20.62
2017-08-02T02:23:13.536Z,20.61
2017-08-02T02:24:13.551Z,20.58
2017-08-02T02:25:13.542Z,20.66
2017-08-02T02:26:13.547Z,20.62
2017-08-02T02:27:13.542Z,20.64
2017-08-02T02:28:13.548Z,20.67
2017-08-02T02:29:13.530Z,20.76
2017-08-02T02:30:13.238Z,20.76
2017-08-02T02:31:13.545Z,20.72
2017-08-02T02:32:13.538Z,20.7
2017-08-02T02:33:13.518Z,20.69
2017-08-02T02:34:13.519Z,20.73
2017-08-02T02:35:13.216Z,20.73
2017-08-02T02:36:13.533Z,20.66
2017-08-02T02:37:13.539Z,20.73
2017-08-02T02:38:13.516Z,20.69
2017-08-02T02:39:13.530Z,20.72
2017-08-02T02:40:13.204Z,20.76
2017-08-02T02:41:13.527Z,20.72
2017-08-02T02:42:13.514Z,20.73
2017-08-02T02:43:13.526Z,20.69
2017-08-02T02:44:13.499Z,20.67
2017-08-02T02:45:13.521Z,20.7
2017-08-02T02:46:13.518Z,20.74
2017-08-02T02:47:13.520Z,20.69
2017-08-02T02:48:13.510Z,20.61
2017-08-02T02:49:13.498Z,20.62
2017-08-02T02:50:13.499Z,20.62
2017-08-02T02:51:13.520Z,20.59
2017-08-02T02:52:13.508Z,20.62
2017-08-02T02:53:13.506Z,20.66
2017-08-02T02:54:13.500Z,20.67
2017-08-02T02:55:13.505Z,20.57
2017-08-02T02:56:13.481Z,20.57
2017-08-02T02:57:13.493Z,20.55
2017-08-02T02:58:13.502Z,20.54
2017-08-02T02:59:13.492Z,20.57
2017-08-02T03:00:13.178Z,20.54
2017-08-02T03:01:13.493Z,20.55
2017-08-02T03:02:13.476Z,20.55
2017-08-02T03:03:13.488Z,20.52
2017-08-02T03:04:13.470Z,20.57
2017-08-02T03:05:13.484Z,20.54
2017-08-02T03:06:13.489Z,20.52
2017-08-02T03:07:13.469Z,20.55
2017-08-02T03:08:13.467Z,20.51
2017-08-02T03:09:13.469Z,20.52
2017-08-02T03:10:13.482Z,20.47
2017-08-02T03:11:13.468Z,20.41
2017-08-02T03:12:13.460Z,20.33
2017-08-02T03:13:13.473Z,20.36
2017-08-02T03:14:13.142Z,20.29
2017-08-02T03:15:13.471Z,20.28
2017-08-02T03:16:13.150Z,20.26
2017-08-02T03:17:13.144Z,20.31
2017-08-02T03:18:13.446Z,20.17
2017-08-02T03:19:13.693Z,20.18
2017-08-02T03:20:13.446Z,20.06
2017-08-02T03:21:13.457Z,20.1
2017-08-02T03:22:13.448Z,20.08
2017-08-02T03:23:13.429Z,20.05
2017-08-02T03:24:13.444Z,20.05
2017-08-02T03:25:13.419Z,19.99
2017-08-02T03:26:13.437Z,20.08
2017-08-02T03:27:13.439Z,20.03
2017-08-02T03:28:13.456Z,19.99
2017-08-02T03:29:13.425Z,19.88
2017-08-02T03:30:13.445Z,19.91
2017-08-02T03:31:13.426Z,19.92
2017-08-02T03:32:13.439Z,19.96
2017-08-02T03:33:13.413Z,19.94
2017-08-02T03:34:13.432Z,19.96
2017-08-02T03:35:13.114Z,19.92
2017-08-02T03:36:13.096Z,19.83
2017-08-02T03:37:13.103Z,19.86
2017-08-02T03:38:13.422Z,19.86
2017-08-02T03:39:13.390Z,19.88
2017-08-02T03:40:13.410Z,19.81
2017-08-02T03:41:13.390Z,19.81
2017-08-02T03:42:13.408Z,19.81
2017-08-02T03:43:13.396Z,19.73
2017-08-02T03:44:13.407Z,19.71
2017-08-02T03:45:13.388Z,19.74
2017-08-02T03:46:13.396Z,19.76
2017-08-02T03:47:13.071Z,19.71
2017-08-02T03:48:13.398Z,19.71
2017-08-02T03:49:13.383Z,19.71
2017-08-02T03:50:13.636Z,19.77
2017-08-02T03:51:13.379Z,19.65
2017-08-02T03:52:13.394Z,19.76
2017-08-02T03:53:13.388Z,19.73
2017-08-02T03:54:13.390Z,19.76
2017-08-02T03:55:13.386Z,19.73
2017-08-02T03:56:13.370Z,19.74
2017-08-02T03:57:13.371Z,19.68
2017-08-02T03:58:13.376Z,19.73
2017-08-02T03:59:13.357Z,19.8
2017-08-02T04:00:13.058Z,19.78
2017-08-02T04:01:13.364Z,19.88
2017-08-02T04:02:13.363Z,19.87
2017-08-02T04:03:13.353Z,19.94
2017-08-02T04:04:13.365Z,19.91
2017-08-02T04:05:13.348Z,20.05
2017-08-02T04:06:13.343Z,20.02
2017-08-02T04:07:13.347Z,20.14
2017-08-02T04:08:13.346Z,20.23
2017-08-02T04:09:13.347Z,20.24
2017-08-02T04:10:13.350Z,20.41
2017-08-02T04:11:13.334Z,20.36
2017-08-02T04:12:13.336Z,20.52
2017-08-02T04:13:13.314Z,20.66
2017-08-02T04:14:13.350Z,20.73
2017-08-02T04:15:13.317Z,20.84
2017-08-02T04:16:13.331Z,20.98
2017-08-02T04:17:13.330Z,21.12
2017-08-02T04:18:13.335Z,21.17
2017-08-02T04:19:13.326Z,21.34
2017-08-02T04:20:13.020Z,21.44
2017-08-02T04:21:13.575Z,21.59
2017-08-02T04:22:13.330Z,21.72
2017-08-02T04:23:13.327Z,21.92
2017-08-02T04:24:13.325Z,22
2017-08-02T04:25:13.314Z,22.2
2017-08-02T04:26:13.312Z,22.42
2017-08-02T04:27:13.007Z,22.49
2017-08-02T04:28:13.317Z,22.76
2017-08-02T04:29:13.312Z,22.95
2017-08-02T04:30:13.314Z,23.1
2017-08-02T04:31:13.325Z,23.2
2017-08-02T04:32:13.325Z,23.36
2017-08-02T04:33:13.307Z,23.47
2017-08-02T04:34:13.023Z,23.7
2017-08-02T04:35:13.313Z,23.8
2017-08-02T04:36:13.334Z,24
2017-08-02T04:37:13.318Z,24.08
2017-08-02T04:38:13.326Z,24.15
2017-08-02T04:39:13.340Z,24.28
2017-08-02T04:40:13.019Z,24.46
2017-08-02T04:41:13.323Z,24.5
2017-08-02T04:42:13.311Z,24.69
2017-08-02T04:43:13.327Z,24.77
2017-08-02T04:44:13.334Z,24.93
2017-08-02T04:45:13.341Z,24.91
2017-08-02T04:46:13.340Z,25.02
2017-08-02T04:47:13.355Z,25.03
2017-08-02T04:48:13.324Z,25.1
2017-08-02T04:49:13.351Z,25.13
2017-08-02T04:50:13.359Z,25.13
2017-08-02T04:51:13.344Z,25.15
2017-08-02T04:52:13.363Z,25.1
2017-08-02T04:53:13.350Z,25.14
2017-08-02T04:54:13.336Z,25.09
2017-08-02T04:55:13.363Z,25.06
2017-08-02T04:56:13.358Z,24.96
2017-08-02T04:57:13.351Z,25
2017-08-02T04:58:13.034Z,24.88
2017-08-02T04:59:13.359Z,24.85
2017-08-02T05:00:13.365Z,24.8
2017-08-02T05:01:13.372Z,24.78
2017-08-02T05:02:13.360Z,24.81
2017-08-02T05:03:13.373Z,24.78
2017-08-02T05:04:13.356Z,24.81
2017-08-02T05:05:13.376Z,24.78
2017-08-02T05:06:13.359Z,24.69
2017-08-02T05:07:13.388Z,24.81
2017-08-02T05:08:13.367Z,24.84
2017-08-02T05:09:13.085Z,24.69
2017-08-02T05:10:13.055Z,24.71
2017-08-02T05:11:13.382Z,24.76
2017-08-02T05:12:13.386Z,24.69
2017-08-02T05:13:13.394Z,24.71
2017-08-02T05:14:13.389Z,24.6
2017-08-02T05:15:13.400Z,24.49
2017-08-02T05:16:13.398Z,24.5
2017-08-02T05:17:13.390Z,24.49
2017-08-02T05:18:13.405Z,24.52
2017-08-02T05:19:13.387Z,24.5
2017-08-02T05:20:13.406Z,24.64
2017-08-02T05:21:13.410Z,24.71
2017-08-02T05:22:13.403Z,24.81
2017-08-02T05:23:13.413Z,24.98
2017-08-02T05:24:13.404Z,25.08
2017-08-02T05:25:13.413Z,25.25
2017-08-02T05:26:13.404Z,25.35
2017-08-02T05:27:13.411Z,25.42
2017-08-02T05:28:13.425Z,25.61
2017-08-02T05:29:13.433Z,25.82
2017-08-02T05:30:13.424Z,26.1
2017-08-02T05:31:13.408Z,26.36
2017-08-02T05:32:13.128Z,26.62
2017-08-02T05:33:13.108Z,26.76
2017-08-02T05:34:13.444Z,27.02
2017-08-02T05:35:13.438Z,27.18
2017-08-02T05:36:13.461Z,27.43
2017-08-02T05:37:13.435Z,27.62
2017-08-02T05:38:13.473Z,27.92
2017-08-02T05:39:13.443Z,28.21
2017-08-02T05:40:13.157Z,28.49
2017-08-02T05:41:13.462Z,28.73
2017-08-02T05:42:13.475Z,28.93
2017-08-02T05:43:13.494Z,29.15
2017-08-02T05:44:13.175Z,29.57
2017-08-02T05:45:13.498Z,29.79
2017-08-02T05:46:13.509Z,30.01
2017-08-02T05:47:13.509Z,30.46
2017-08-02T05:48:13.514Z,30.6
2017-08-02T05:49:13.521Z,30.91
2017-08-02T05:50:13.557Z,31.16
2017-08-02T05:51:13.525Z,31.47
2017-08-02T05:52:13.559Z,31.66
2017-08-02T05:53:13.231Z,31.88
2017-08-02T05:54:13.570Z,32.15
2017-08-02T05:55:12.950Z,32.56
2017-08-02T05:56:13.587Z,32.77
2017-08-02T05:57:13.571Z,33.09
2017-08-02T05:58:13.602Z,33.32
2017-08-02T05:59:13.608Z,33.45
2017-08-02T06:00:13.611Z,33.75
2017-08-02T06:01:13.615Z,33.84
2017-08-02T06:02:13.626Z,33.98
2017-08-02T06:03:13.659Z,34.16
2017-08-02T06:04:13.659Z,34.31
2017-08-02T06:05:13.357Z,34.4
2017-08-02T06:06:13.376Z,34.59
2017-08-02T06:07:13.699Z,35
2017-08-02T06:08:13.688Z,35.15
2017-08-02T06:09:13.723Z,35.41
2017-08-02T06:10:13.399Z,35.44
2017-08-02T06:11:13.750Z,35.77
2017-08-02T06:12:13.744Z,35.89
2017-08-02T06:13:13.757Z,36.03
2017-08-02T06:14:13.782Z,36.32
2017-08-02T06:15:13.786Z,36.43
2017-08-02T06:16:13.791Z,36.66
2017-08-02T06:17:13.799Z,36.93
2017-08-02T06:18:13.811Z,37.21
2017-08-02T06:19:13.855Z,37.43
2017-08-02T06:20:13.851Z,37.59
2017-08-02T06:21:13.865Z,37.79
2017-08-02T06:22:13.867Z,38.09
2017-08-02T06:23:13.892Z,38.25
2017-08-02T06:24:13.591Z,38.42
2017-08-02T06:25:13.605Z,38.47
2017-08-02T06:26:13.911Z,38.63
2017-08-02T06:27:13.946Z,38.76
2017-08-02T06:28:13.951Z,38.91
2017-08-02T06:29:13.983Z,39.25
2017-08-02T06:30:13.975Z,39.38
2017-08-02T06:31:14.017Z,39.55
2017-08-02T06:32:14.021Z,39.55
2017-08-02T06:33:14.030Z,39.63
2017-08-02T06:34:14.055Z,39.82
2017-08-02T06:35:14.055Z,39.92
2017-08-02T06:36:14.075Z,40.08
2017-08-02T06:37:14.108Z,40.13
2017-08-02T06:38:14.107Z,40.06
2017-08-02T06:39:14.123Z,40.06
2017-08-02T06:40:14.127Z,40.08
2017-08-02T06:41:14.169Z,39.94
2017-08-02T06:42:14.192Z,39.82
2017-08-02T06:43:14.188Z,39.79
2017-08-02T06:44:14.215Z,39.78
2017-08-02T06:45:14.227Z,39.75
2017-08-02T06:46:13.917Z,39.64
2017-08-02T06:47:14.263Z,39.6
2017-08-02T06:48:13.967Z,39.3
2017-08-02T06:49:14.297Z,39.03
2017-08-02T06:50:14.309Z,38.86
2017-08-02T06:51:14.011Z,38.68
2017-08-02T06:52:14.342Z,38.72
2017-08-02T06:53:14.335Z,38.72
2017-08-02T06:54:14.060Z,38.61
2017-08-02T06:55:14.383Z,38.6
2017-08-02T06:56:14.390Z,38.47
2017-08-02T06:57:14.391Z,38.38
2017-08-02T06:58:14.419Z,38.46
2017-08-02T06:59:14.434Z,38.3
2017-08-02T07:00:14.443Z,38.28
2017-08-02T07:01:14.443Z,38.28
2017-08-02T07:02:14.476Z,38.2
2017-08-02T07:03:14.480Z,38.09
2017-08-02T07:04:14.492Z,37.94
2017-08-02T07:05:14.518Z,37.78
2017-08-02T07:06:14.533Z,37.57
2017-08-02T07:07:14.535Z,37.37
2017-08-02T07:08:14.553Z,37.21
2017-08-02T07:09:14.546Z,37.03
2017-08-02T07:10:14.575Z,36.8
2017-08-02T07:11:14.274Z,36.73
2017-08-02T07:12:14.609Z,36.41
2017-08-02T07:13:14.609Z,36.29
2017-08-02T07:14:14.634Z,36.13
2017-08-02T07:15:14.628Z,35.89
2017-08-02T07:17:14.647Z,35.44
2017-08-02T07:18:14.664Z,35.23
2017-08-02T07:19:14.674Z,35.15
2017-08-02T07:20:14.694Z,34.92
2017-08-02T07:21:14.689Z,34.8
2017-08-02T07:22:14.727Z,34.65
2017-08-02T07:23:14.097Z,34.54
2017-08-02T07:24:14.737Z,34.47
2017-08-02T07:25:14.746Z,34.37
2017-08-02T07:26:14.782Z,34.27
2017-08-02T07:27:14.748Z,34.22
2017-08-02T07:28:14.789Z,34.27
2017-08-02T07:29:14.781Z,34.21
2017-08-02T07:30:14.776Z,34.06
2017-08-02T07:31:17.014Z,33.98
2017-08-02T07:32:14.812Z,33.98
2017-08-02T07:33:14.808Z,33.9
2017-08-02T07:34:14.833Z,33.91
2017-08-02T07:35:14.830Z,34
2017-08-02T07:36:14.848Z,33.93
2017-08-02T07:37:14.850Z,33.91
2017-08-02T07:38:14.877Z,33.82
2017-08-02T07:39:14.869Z,33.78
2017-08-02T07:40:14.899Z,33.78
2017-08-02T07:41:14.880Z,33.72
2017-08-02T07:42:14.897Z,33.65
2017-08-02T07:43:15.300Z,33.72
2017-08-02T07:44:14.932Z,33.78
2017-08-02T07:45:14.945Z,34
2017-08-02T07:46:14.931Z,34.16
2017-08-02T07:47:14.956Z,34.35
2017-08-02T07:48:14.956Z,34.53
2017-08-02T07:49:14.986Z,34.56
2017-08-02T07:50:14.976Z,34.7
2017-08-02T07:51:14.687Z,34.78
2017-08-02T07:52:14.994Z,34.89
2017-08-02T07:53:15.025Z,34.7
2017-08-02T07:54:14.732Z,34.77
2017-08-02T07:55:15.032Z,34.69
2017-08-02T07:56:15.047Z,34.69
2017-08-02T07:57:15.057Z,34.8
2017-08-02T07:58:15.055Z,34.82
2017-08-02T07:59:15.065Z,34.75
2017-08-02T08:00:15.102Z,34.73
2017-08-02T08:01:15.104Z,34.77
2017-08-02T08:02:15.103Z,34.92
2017-08-02T08:03:15.133Z,34.96
2017-08-02T08:04:14.808Z,34.94
2017-08-02T08:05:15.141Z,34.94
2017-08-02T08:06:15.143Z,34.94
2017-08-02T08:07:15.159Z,34.85
2017-08-02T08:08:15.158Z,34.81
2017-08-02T08:09:15.182Z,34.84
2017-08-02T08:10:15.197Z,34.82
2017-08-02T08:11:15.203Z,34.84
2017-08-02T08:12:14.896Z,34.89
2017-08-02T08:13:15.226Z,34.84
2017-08-02T08:14:15.238Z,34.88
2017-08-02T08:15:15.247Z,34.81
2017-08-02T08:16:14.950Z,34.78
2017-08-02T08:17:15.249Z,34.73
2017-08-02T08:18:15.264Z,34.56
2017-08-02T08:19:15.280Z,34.49
2017-08-02T08:20:15.280Z,34.17
2017-08-02T08:21:15.297Z,34.16
2017-08-02T08:22:14.996Z,34
2017-08-02T08:23:15.047Z,33.97
2017-08-02T08:24:15.320Z,33.94
2017-08-02T08:25:15.043Z,33.79
2017-08-02T08:26:15.335Z,33.79
2017-08-02T08:27:15.372Z,33.81
2017-08-02T08:28:15.365Z,33.73
2017-08-02T08:29:15.381Z,33.81
2017-08-02T08:30:15.386Z,33.78
2017-08-02T08:31:15.398Z,33.78
2017-08-02T08:32:15.398Z,33.68
2017-08-02T08:33:15.412Z,33.68
2017-08-02T08:34:15.431Z,33.68
2017-08-02T08:35:15.134Z,33.73
2017-08-02T08:36:15.142Z,33.76
2017-08-02T08:37:15.446Z,33.75
2017-08-02T08:38:15.156Z,33.71
2017-08-02T08:39:15.469Z,33.65
2017-08-02T08:40:15.478Z,33.54
2017-08-02T08:41:15.473Z,33.39
2017-08-02T08:42:15.511Z,33.29
2017-08-02T08:43:15.502Z,33.21
2017-08-02T08:44:15.517Z,33.26
2017-08-02T08:45:15.517Z,33.18
2017-08-02T08:46:15.537Z,33.31
2017-08-02T08:47:15.549Z,33.41
2017-08-02T08:48:15.563Z,33.39
2017-08-02T08:49:15.566Z,33.5
2017-08-02T08:50:15.568Z,33.68
2017-08-02T08:51:15.581Z,33.72
2017-08-02T08:52:15.585Z,33.81
2017-08-02T08:53:15.587Z,33.82
2017-08-02T08:54:15.611Z,33.82
2017-08-02T08:55:15.291Z,33.87
2017-08-02T08:56:15.322Z,33.88
2017-08-02T08:57:15.629Z,33.94
2017-08-02T08:58:15.320Z,33.86
2017-08-02T08:59:15.355Z,33.93
2017-08-02T09:00:15.354Z,34.02
2017-08-02T09:01:15.371Z,33.97
2017-08-02T09:02:15.681Z,33.97
2017-08-02T09:03:15.705Z,33.91
2017-08-02T09:04:15.697Z,33.95
2017-08-02T09:05:15.708Z,33.79
2017-08-02T09:06:15.717Z,33.79
2017-08-02T09:07:15.477Z,33.76
2017-08-02T09:08:15.439Z,33.6
2017-08-02T09:09:15.431Z,33.59
2017-08-02T09:10:15.450Z,33.61
2017-08-02T09:11:15.772Z,33.49
2017-08-02T09:12:15.457Z,33.57
2017-08-02T09:13:15.176Z,33.69
2017-08-02T09:14:15.803Z,33.79
2017-08-02T09:15:15.498Z,34.02
2017-08-02T09:16:15.488Z,34.08
2017-08-02T09:17:15.514Z,34.19
2017-08-02T09:18:15.836Z,34.22
2017-08-02T09:19:15.536Z,34.4
2017-08-02T09:20:15.539Z,34.46
2017-08-02T09:21:15.539Z,34.5
2017-08-02T09:22:15.570Z,34.37
2017-08-02T09:23:15.891Z,34.39
2017-08-02T09:24:15.581Z,34.31
2017-08-02T09:25:15.594Z,34.35
2017-08-02T09:26:15.901Z,34.37
2017-08-02T09:27:15.908Z,34.34
2017-08-02T09:28:15.613Z,34.32
2017-08-02T09:29:15.626Z,34.39
2017-08-02T09:30:15.944Z,34.44
2017-08-02T09:31:15.945Z,34.43
2017-08-02T09:32:15.964Z,34.31
2017-08-02T09:33:16.224Z,34.4
2017-08-02T09:34:15.966Z,34.32
2017-08-02T09:35:15.987Z,34.35
2017-08-02T09:36:15.688Z,34.32
2017-08-02T09:37:16.006Z,34.35
2017-08-02T09:38:15.711Z,34.15
2017-08-02T09:39:15.726Z,34.09
2017-08-02T09:40:16.042Z,34.02
2017-08-02T09:41:16.041Z,33.86
2017-08-02T09:42:16.064Z,33.76
2017-08-02T09:43:16.045Z,33.69
2017-08-02T09:44:16.071Z,33.66
2017-08-02T09:45:16.063Z,33.53
2017-08-02T09:46:16.089Z,33.5
2017-08-02T09:47:16.088Z,33.38
2017-08-02T09:48:16.124Z,33.34
2017-08-02T09:49:15.793Z,33.19
2017-08-02T09:50:16.129Z,33.11
2017-08-02T09:51:16.122Z,33.11
2017-08-02T09:52:15.840Z,33.06
2017-08-02T09:53:15.839Z,33.12
2017-08-02T09:54:16.154Z,33.15
2017-08-02T09:55:16.154Z,33.29
2017-08-02T09:56:16.174Z,33.42
2017-08-02T09:57:15.563Z,33.49
2017-08-02T09:58:15.563Z,33.56
2017-08-02T09:59:16.207Z,33.68
2017-08-02T10:00:16.209Z,33.63
2017-08-02T10:01:16.219Z,33.59
2017-08-02T10:02:16.209Z,33.5
2017-08-02T10:03:16.222Z,33.42
2017-08-02T10:04:15.935Z,33.37
2017-08-02T10:05:15.924Z,33.19
2017-08-02T10:06:16.257Z,33.03
2017-08-02T10:07:16.256Z,32.88
2017-08-02T10:08:15.957Z,32.72
2017-08-02T10:09:16.272Z,32.56
2017-08-02T10:10:16.302Z,32.5
2017-08-02T10:11:16.285Z,32.48
2017-08-02T10:12:16.297Z,32.48
2017-08-02T10:13:16.311Z,32.51
2017-08-02T10:14:16.316Z,32.55
2017-08-02T10:15:16.026Z,32.5
2017-08-02T10:16:15.706Z,32.48
2017-08-02T10:17:16.343Z,32.5
2017-08-02T10:18:16.342Z,32.44
2017-08-02T10:19:16.375Z,32.41
2017-08-02T10:20:16.358Z,32.38
2017-08-02T10:21:16.384Z,32.44
2017-08-02T10:22:16.374Z,32.28
2017-08-02T10:23:16.105Z,32.21
2017-08-02T10:24:16.384Z,32.25
2017-08-02T10:25:16.402Z,32.15
2017-08-02T10:26:16.406Z,32.14
2017-08-02T10:27:16.108Z,32.01
2017-08-02T10:28:15.796Z,32
2017-08-02T10:29:16.440Z,32.07
2017-08-02T10:30:16.436Z,32.03
2017-08-02T10:31:16.460Z,31.96
2017-08-02T10:32:16.452Z,32
2017-08-02T10:33:16.477Z,31.96
2017-08-02T10:34:16.463Z,32.04
2017-08-02T10:35:16.480Z,32
2017-08-02T10:36:16.463Z,32.15
2017-08-02T10:37:16.496Z,32.26
2017-08-02T10:38:16.715Z,32.38
2017-08-02T10:39:16.523Z,32.48
2017-08-02T10:40:16.510Z,32.57
2017-08-02T10:41:16.521Z,32.59
2017-08-02T10:42:16.532Z,32.66
2017-08-02T10:43:16.220Z,32.66
2017-08-02T10:44:16.529Z,32.75
2017-08-02T10:45:16.561Z,32.79
2017-08-02T10:46:16.255Z,32.79
2017-08-02T10:47:16.576Z,32.78
2017-08-02T10:48:16.592Z,32.72
2017-08-02T10:49:16.592Z,32.69
2017-08-02T10:50:16.584Z,32.7
2017-08-02T10:51:16.614Z,32.72
2017-08-02T10:52:16.608Z,32.63
2017-08-02T10:53:16.308Z,32.57
2017-08-02T10:54:16.622Z,32.51
2017-08-02T10:55:16.322Z,32.48
2017-08-02T10:56:16.639Z,32.47
2017-08-02T10:57:16.344Z,32.38
2017-08-02T10:58:16.649Z,32.4
2017-08-02T10:59:16.669Z,32.41
2017-08-02T11:00:16.660Z,32.4
2017-08-02T11:01:16.688Z,32.51
2017-08-02T11:02:16.697Z,32.52
2017-08-02T11:03:16.708Z,32.4
2017-08-02T11:04:16.701Z,32.41
2017-08-02T11:05:16.722Z,32.52
2017-08-02T11:06:16.705Z,32.51
2017-08-02T11:07:16.736Z,32.55
2017-08-02T11:08:16.724Z,32.66
2017-08-02T11:09:16.445Z,32.67
2017-08-02T11:10:16.751Z,32.7
2017-08-02T11:11:16.762Z,32.65
2017-08-02T11:12:16.772Z,32.52
2017-08-02T11:13:16.756Z,32.55
2017-08-02T11:14:16.783Z,32.41
2017-08-02T11:15:16.797Z,32.29
2017-08-02T11:16:16.799Z,32.26
2017-08-02T11:17:16.802Z,32.37
2017-08-02T11:18:16.814Z,32.4
2017-08-02T11:19:16.825Z,32.51
2017-08-02T11:20:16.511Z,32.51
2017-08-02T11:21:16.848Z,32.56
2017-08-02T11:22:16.841Z,32.51
2017-08-02T11:23:16.855Z,32.48
2017-08-02T11:24:16.844Z,32.51
2017-08-02T11:25:16.870Z,32.4
2017-08-02T11:26:16.889Z,32.29
2017-08-02T11:27:16.882Z,32.37
2017-08-02T11:28:16.897Z,32.28
2017-08-02T11:29:16.883Z,32.32
2017-08-02T11:30:16.913Z,32.41
2017-08-02T11:31:16.613Z,32.4
2017-08-02T11:32:16.922Z,32.28
2017-08-02T11:33:16.937Z,32.22
2017-08-02T11:34:16.621Z,32.19
2017-08-02T11:35:16.942Z,31.99
2017-08-02T11:36:16.958Z,32.04
2017-08-02T11:37:16.969Z,31.73
2017-08-02T11:38:16.656Z,31.8
2017-08-02T11:39:16.665Z,31.65
2017-08-02T11:40:16.994Z,31.65
2017-08-02T11:41:16.979Z,31.54
2017-08-02T11:42:16.999Z,31.53
2017-08-02T11:43:16.996Z,31.5
2017-08-02T11:44:17.020Z,31.5
2017-08-02T11:45:17.016Z,31.38
2017-08-02T11:46:17.021Z,31.53
2017-08-02T11:47:16.733Z,31.35
2017-08-02T11:48:17.049Z,31.34
2017-08-02T11:49:17.053Z,31.28
2017-08-02T11:50:17.066Z,31.25
2017-08-02T11:51:17.055Z,31.2
2017-08-02T11:52:17.065Z,31.19
2017-08-02T11:53:17.071Z,31.19
2017-08-02T11:54:17.093Z,31.13
2017-08-02T11:55:17.081Z,31.12
2017-08-02T11:56:17.097Z,30.99
2017-08-02T11:57:16.778Z,30.98
2017-08-02T11:58:16.800Z,30.88
2017-08-02T11:59:17.145Z,30.73
2017-08-02T12:00:17.126Z,30.61
2017-08-02T12:01:17.138Z,30.65
2017-08-02T12:02:17.135Z,30.46
2017-08-02T12:03:17.142Z,30.47
2017-08-02T12:04:17.155Z,30.49
2017-08-02T12:05:17.368Z,30.37
2017-08-02T12:06:17.170Z,30.27
2017-08-02T12:07:17.179Z,30.38
2017-08-02T12:08:17.186Z,30.35
2017-08-02T12:09:17.180Z,30.27
2017-08-02T12:10:17.190Z,30.26
2017-08-02T12:11:16.873Z,30.29
2017-08-02T12:12:17.214Z,30.26
2017-08-02T12:13:17.210Z,30.22
2017-08-02T12:14:17.202Z,30.17
2017-08-02T12:15:17.215Z,30.07
2017-08-02T12:16:17.237Z,30.15
2017-08-02T12:17:17.247Z,30.01
2017-08-02T12:18:16.937Z,30.05
2017-08-02T12:19:17.243Z,30.11
2017-08-02T12:20:17.239Z,30.11
2017-08-02T12:21:17.259Z,30.1
2017-08-02T12:22:17.262Z,30.07
2017-08-02T12:23:17.274Z,30.15
2017-08-02T12:24:17.266Z,30.2
2017-08-02T12:25:17.283Z,30.27
2017-08-02T12:26:17.281Z,30.32
2017-08-02T12:27:17.312Z,30.54
2017-08-02T12:28:17.304Z,30.64
2017-08-02T12:29:16.998Z,30.76
2017-08-02T12:30:17.297Z,30.86
2017-08-02T12:31:17.322Z,30.95
2017-08-02T12:32:16.999Z,30.99
2017-08-02T12:33:17.312Z,31.02
2017-08-02T12:34:17.327Z,31.04
2017-08-02T12:35:17.349Z,31.13
2017-08-02T12:36:17.325Z,31.12
2017-08-02T12:37:17.355Z,31.01
2017-08-02T12:38:17.363Z,30.97
2017-08-02T12:39:17.381Z,30.95
2017-08-02T12:40:17.061Z,30.95
2017-08-02T12:41:17.372Z,30.91
2017-08-02T12:42:17.384Z,30.84
2017-08-02T12:43:17.386Z,30.79
2017-08-02T12:44:17.395Z,30.75
2017-08-02T12:45:17.410Z,30.76
2017-08-02T12:46:17.412Z,30.76
2017-08-02T12:47:17.420Z,30.61
2017-08-02T12:48:17.104Z,30.65
2017-08-02T12:49:17.428Z,30.6
2017-08-02T12:50:17.124Z,30.51
2017-08-02T12:51:17.439Z,30.53
2017-08-02T12:52:17.453Z,30.53
2017-08-02T12:53:17.454Z,30.46
2017-08-02T12:54:17.457Z,30.51
2017-08-02T12:55:17.461Z,30.54
2017-08-02T12:56:17.467Z,30.6